Paauilo, Hawaii
Current Conditions -  °F | °C
As of 5:56 PM on Saturday 20 Dec 2014 (Local Time) from PHSF Reporting Station
Clear Clear  
Wind Chill: 57°   Ceiling: Unl
Heat Index: 57°   Visibility: 10mi
Dew Point: 34°   Wind: 6mph
Humidity: 42%   Direction: 120°ESE
Pressure: 30.27"   Gusts: 20mph
Location:  20.03°N, 155.36°W
Report Text: PHSF 210356Z AUTO 12005G17KT 10SM CLR 14/01 A3027 RMK AO2 SLP149 T01390010 $
Loading
Personal Weather Stations






























Interactive Weather Map New forecast layout! Learn more

10-Day Weather Forecast

Advertisements
Track Severe Weather on mobile